Strona główna
METAR-TAF:

METAR-TAF

Lotnisko :

Flemingsburg, Kentucky, Stany Zjednoczone

Szerokość geograficzna: 38-32-30N, Długość geograficzna: 083-44-36W, wysokość: 278 m

Aktualna obserwacja pogody

Raport powstał 13 minut temu, godzina 17:35 UTC
Wiatr 5 kt od zachód
Temperatura 33°C
Wilgotność 56%
Ciśnienie 1017 hPa
Widzialność: 16.1 km
Rozproszone chmury na wysokości 3300 ft

METAR: KFGX 201735Z AUTO 27005KT 10SM SCT033 33/23 A3004 RMK AO2 T03250231

czas: 13:48 (17:48 UTC)


TAF: brakujący

Obserwacja i prognoza pogody dla ponad 4000 lotnisk (raport METAR i TAF).

Dostępne stacje oznaczono żółtymi i czerwonymi punktami na mapie.

Najedź kursorem aby zobaczyć nazwę stacji.

Kliknij aby zobaczyć obserwacje i prognozy pogody.

Aby zmienić mapę: kliknij na zielony przycisk z czarnym krzyżykiem, aby powiększyć; na zielony przycisk z myślnikiem, aby pomniejszyć; na zielone strzałki, aby przejść do map sąsiednich.


METAR-TAF: